createdAt,value
2022-08-09T00:00:11.888Z,99520.00
2022-08-09T00:02:42.816Z,99518.00
2022-08-09T00:06:15.598Z,99536.00
2022-08-09T00:08:12.934Z,99523.00
2022-08-09T00:10:59.323Z,99536.00
2022-08-09T00:13:26.307Z,99530.00
2022-08-09T00:15:59.446Z,99525.00
2022-08-09T00:18:35.495Z,99537.00
2022-08-09T00:21:07.915Z,99532.00
2022-08-09T00:23:55.289Z,99535.00
2022-08-09T00:26:32.968Z,99531.00
2022-08-09T00:29:02.146Z,99539.00
2022-08-09T00:31:57.216Z,99536.00
2022-08-09T00:34:19.243Z,99535.00
2022-08-09T00:36:49.794Z,99536.00
2022-08-09T00:40:12.531Z,99531.00
2022-08-09T00:44:09.935Z,99534.00
2022-08-09T00:44:52.034Z,99523.00
2022-08-09T00:47:21.706Z,99524.00
2022-08-09T00:49:56.482Z,99527.00
2022-08-09T00:52:29.980Z,99527.00
2022-08-09T00:55:01.221Z,99530.00
2022-08-09T00:57:34.661Z,99533.00
2022-08-09T01:00:21.589Z,99522.00
2022-08-09T01:03:05.020Z,99519.00
2022-08-09T01:05:54.247Z,99520.00
2022-08-09T01:09:09.551Z,99537.00
2022-08-09T01:12:35.480Z,99534.00
2022-08-09T01:15:16.620Z,99533.00
2022-08-09T01:18:10.370Z,99543.00
2022-08-09T01:21:09.984Z,99540.00
2022-08-09T01:24:00.666Z,99549.00
2022-08-09T01:27:02.577Z,99545.00
2022-08-09T01:29:55.494Z,99556.00
2022-08-09T01:32:33.766Z,99550.00
2022-08-09T01:35:28.541Z,99550.00
2022-08-09T01:38:09.989Z,99553.00
2022-08-09T01:40:52.680Z,99556.00
2022-08-09T01:43:41.875Z,99550.00
2022-08-09T01:46:27.392Z,99546.00
2022-08-09T01:49:09.506Z,99546.00
2022-08-09T01:51:44.657Z,99560.00
2022-08-09T01:54:32.662Z,99560.00
2022-08-09T01:57:09.737Z,99560.00
2022-08-09T01:59:51.495Z,99560.00
2022-08-09T02:02:30.933Z,99549.00
2022-08-09T02:05:15.092Z,99550.00
2022-08-09T02:08:40.464Z,99565.00
2022-08-09T02:10:53.988Z,99569.00
2022-08-09T02:13:26.213Z,99562.00
2022-08-09T02:16:07.870Z,99561.00
2022-08-09T02:18:38.276Z,99554.00
2022-08-09T02:21:22.382Z,99560.00
2022-08-09T02:24:00.128Z,99564.00
2022-08-09T02:26:35.199Z,99567.00
2022-08-09T02:29:23.515Z,99564.00
2022-08-09T02:31:54.890Z,99575.00
2022-08-09T02:34:40.779Z,99573.00
2022-08-09T02:37:15.326Z,99587.00
2022-08-09T02:39:55.247Z,99585.00
2022-08-09T02:42:36.983Z,99584.00
2022-08-09T02:45:09.088Z,99579.00
2022-08-09T02:47:57.573Z,99576.00
2022-08-09T02:50:41.978Z,99569.00
2022-08-09T02:53:26.124Z,99573.00
2022-08-09T02:55:58.755Z,99563.00
2022-08-09T02:58:37.253Z,99571.00
2022-08-09T03:01:11.330Z,99565.00
2022-08-09T03:04:17.981Z,99572.00
2022-08-09T03:06:40.369Z,99564.00
2022-08-09T03:09:10.151Z,99573.00
2022-08-09T03:12:06.210Z,99573.00
2022-08-09T03:14:29.247Z,99573.00
2022-08-09T03:17:01.477Z,99556.00
2022-08-09T03:19:59.278Z,99572.00
2022-08-09T03:22:30.478Z,99569.00
2022-08-09T03:25:05.687Z,99571.00
2022-08-09T03:27:52.469Z,99580.00
2022-08-09T03:30:30.207Z,99572.00
2022-08-09T03:33:12.783Z,99579.00
2022-08-09T03:36:13.347Z,99580.00
2022-08-09T03:38:42.012Z,99582.00
2022-08-09T03:41:15.247Z,99579.00
2022-08-09T03:44:03.646Z,99585.00
2022-08-09T03:46:31.793Z,99589.00
2022-08-09T03:49:03.729Z,99582.00
2022-08-09T03:51:55.696Z,99578.00
2022-08-09T03:54:32.516Z,99590.00
2022-08-09T03:57:18.135Z,99592.00
2022-08-09T03:59:54.341Z,99591.00
2022-08-09T04:02:27.572Z,99595.00
2022-08-09T04:04:58.884Z,99587.00
2022-08-09T04:07:33.783Z,99585.00
2022-08-09T04:10:20.230Z,99591.00
2022-08-09T04:12:51.212Z,99584.00
2022-08-09T04:15:38.914Z,99592.00
2022-08-09T04:18:16.704Z,99598.00
2022-08-09T04:20:47.257Z,99581.00
2022-08-09T04:23:17.419Z,99590.00
2022-08-09T04:25:49.649Z,99598.00
2022-08-09T04:28:33.195Z,99599.00
2022-08-09T04:31:09.442Z,99598.00
2022-08-09T04:33:51.589Z,99615.00
2022-08-09T04:36:26.767Z,99607.00
2022-08-09T04:38:55.999Z,99611.00
2022-08-09T04:41:31.975Z,99614.00
2022-08-09T04:44:06.665Z,99619.00
2022-08-09T04:46:56.891Z,99619.00
2022-08-09T04:49:30.476Z,99623.00
2022-08-09T04:52:12.071Z,99631.00
2022-08-09T04:54:47.128Z,99631.00
2022-08-09T04:57:14.630Z,99638.00
2022-08-09T04:59:41.819Z,99627.00
2022-08-09T05:02:09.087Z,99640.00
2022-08-09T05:04:36.438Z,99642.00
2022-08-09T05:07:05.185Z,99645.00
2022-08-09T05:09:42.046Z,99638.00
2022-08-09T05:12:11.073Z,99647.00
2022-08-09T05:14:41.281Z,99655.00
2022-08-09T05:18:36.888Z,99647.00
2022-08-09T05:19:56.637Z,99647.00
2022-08-09T05:22:33.368Z,99654.00
2022-08-09T05:25:12.440Z,99651.00
2022-08-09T05:27:47.849Z,99648.00
2022-08-09T05:30:17.682Z,99658.00
2022-08-09T05:32:50.939Z,99657.00
2022-08-09T05:35:22.108Z,99654.00
2022-08-09T05:37:50.470Z,99651.00
2022-08-09T05:40:18.468Z,99659.00
2022-08-09T05:42:46.037Z,99651.00
2022-08-09T05:45:14.547Z,99646.00
2022-08-09T05:47:50.878Z,99663.00
2022-08-09T05:50:32.140Z,99666.00
2022-08-09T05:53:05.642Z,99664.00
2022-08-09T05:55:38.822Z,99666.00
2022-08-09T05:58:07.298Z,99648.00
2022-08-09T06:00:34.376Z,99661.00
2022-08-09T06:03:04.097Z,99673.00
2022-08-09T06:05:58.179Z,99671.00
2022-08-09T06:08:25.210Z,99675.00
2022-08-09T06:10:57.961Z,99686.00
2022-08-09T06:13:28.764Z,99684.00
2022-08-09T06:16:04.974Z,99684.00
2022-08-09T06:18:33.585Z,99693.00
2022-08-09T06:21:01.825Z,99694.00
2022-08-09T06:23:58.206Z,99698.00
2022-08-09T06:26:22.443Z,99697.00
2022-08-09T06:29:01.145Z,99692.00
2022-08-09T06:31:40.187Z,99694.00
2022-08-09T06:34:26.374Z,99698.00
2022-08-09T06:36:59.791Z,99703.00
2022-08-09T06:39:48.872Z,99699.00
2022-08-09T06:42:24.391Z,99702.00
2022-08-09T06:44:55.371Z,99696.00
2022-08-09T06:47:24.542Z,99693.00
2022-08-09T06:50:13.862Z,99701.00
2022-08-09T06:52:46.809Z,99697.00
2022-08-09T06:55:16.995Z,99689.00
2022-08-09T06:58:03.138Z,99697.00
2022-08-09T07:00:51.956Z,99710.00
2022-08-09T07:03:27.815Z,99708.00
2022-08-09T07:06:02.759Z,99713.00
2022-08-09T07:08:37.234Z,99703.00
2022-08-09T07:11:07.267Z,99712.00
2022-08-09T07:14:04.114Z,99710.00
2022-08-09T07:16:40.720Z,99708.00
2022-08-09T07:19:15.220Z,99710.00
2022-08-09T07:21:50.203Z,99715.00
2022-08-09T07:24:32.172Z,99712.00
2022-08-09T07:27:10.977Z,99713.00
2022-08-09T07:29:56.844Z,99716.00
2022-08-09T07:32:32.474Z,99707.00
2022-08-09T07:35:08.168Z,99718.00
2022-08-09T07:37:45.813Z,99719.00
2022-08-09T07:40:17.551Z,99704.00
2022-08-09T07:42:54.355Z,99722.00
2022-08-09T07:45:37.842Z,99707.00
2022-08-09T07:48:28.676Z,99707.00
2022-08-09T07:51:09.062Z,99709.00
2022-08-09T07:54:06.530Z,99724.00
2022-08-09T07:56:33.728Z,99732.00
2022-08-09T07:59:02.049Z,99723.00
2022-08-09T08:01:33.992Z,99707.00
2022-08-09T08:04:02.872Z,99717.00
2022-08-09T08:06:32.114Z,99727.00
2022-08-09T08:09:05.058Z,99717.00
2022-08-09T08:12:24.113Z,99721.00
2022-08-09T08:14:24.163Z,99724.00
2022-08-09T08:17:07.539Z,99729.00
2022-08-09T08:19:35.956Z,99719.00
2022-08-09T08:22:04.262Z,99719.00
2022-08-09T08:24:35.425Z,99715.00
2022-08-09T08:27:16.958Z,99738.00
2022-08-09T08:29:48.542Z,99731.00
2022-08-09T08:32:18.904Z,99733.00
2022-08-09T08:34:51.947Z,99731.00
2022-08-09T08:37:22.070Z,99723.00
2022-08-09T08:39:52.187Z,99727.00
2022-08-09T08:42:19.329Z,99715.00
2022-08-09T08:45:00.966Z,99732.00
2022-08-09T08:47:42.883Z,99718.00
2022-08-09T08:50:18.108Z,99726.00
2022-08-09T08:52:58.019Z,99718.00
2022-08-09T08:55:27.503Z,99721.00
2022-08-09T08:57:58.586Z,99727.00
2022-08-09T09:00:34.746Z,99729.00
2022-08-09T09:03:11.427Z,99726.00
2022-08-09T09:05:58.367Z,99725.00
2022-08-09T09:08:40.273Z,99728.00
2022-08-09T09:11:17.899Z,99713.00
2022-08-09T09:13:57.528Z,99720.00
2022-08-09T09:16:34.306Z,99712.00
2022-08-09T09:19:41.415Z,99719.00
2022-08-09T09:22:12.582Z,99710.00
2022-08-09T09:24:47.197Z,99712.00
2022-08-09T09:28:07.010Z,99707.00
2022-08-09T09:30:40.109Z,99712.00
2022-08-09T09:33:15.730Z,99709.00
2022-08-09T09:36:20.637Z,99709.00
2022-08-09T09:38:58.074Z,99713.00
2022-08-09T09:41:33.137Z,99703.00
2022-08-09T09:52:36.263Z,99687.00
2022-08-09T09:55:27.662Z,99686.00
2022-08-09T09:58:17.010Z,99685.00
2022-08-09T10:00:58.322Z,99683.00
2022-08-09T10:03:56.332Z,99674.00
2022-08-09T10:06:47.258Z,99668.00
2022-08-09T10:09:22.724Z,99674.00
2022-08-09T10:12:12.486Z,99671.00
2022-08-09T10:14:51.534Z,99661.00
2022-08-09T10:17:40.203Z,99641.00
2022-08-09T10:20:32.365Z,99668.00
2022-08-09T10:23:22.566Z,99666.00
2022-08-09T10:26:06.093Z,99663.00
2022-08-09T10:28:40.143Z,99676.00
2022-08-09T10:34:08.782Z,99667.00
2022-08-09T10:36:39.846Z,99669.00
2022-08-09T10:39:15.651Z,99665.00
2022-08-09T10:41:47.462Z,99664.00
2022-08-09T10:44:22.187Z,99655.00
2022-08-09T10:48:12.703Z,99655.00
2022-08-09T10:51:01.424Z,99658.00
2022-08-09T10:54:05.938Z,99661.00
2022-08-09T10:56:40.194Z,99653.00
2022-08-09T10:59:31.338Z,99651.00
2022-08-09T11:03:13.255Z,99653.00
2022-08-09T11:05:25.408Z,99648.00
2022-08-09T11:07:59.372Z,99648.00
2022-08-09T11:10:56.355Z,99641.00
2022-08-09T11:13:53.625Z,99639.00
2022-08-09T11:16:35.656Z,99638.00
2022-08-09T11:19:10.140Z,99634.00
2022-08-09T11:22:16.872Z,99629.00
2022-08-09T11:25:14.716Z,99637.00
2022-08-09T11:28:04.269Z,99639.00
2022-08-09T11:30:38.694Z,99638.00
2022-08-09T11:33:17.757Z,99643.00
2022-08-09T11:35:50.443Z,99639.00
2022-08-09T11:38:22.612Z,99636.00
2022-08-09T11:41:13.149Z,99644.00
2022-08-09T11:43:49.397Z,99639.00
2022-08-09T11:46:33.413Z,99637.00
2022-08-09T11:49:05.354Z,99623.00
2022-08-09T11:52:56.523Z,99632.00
2022-08-09T11:55:39.949Z,99634.00
2022-08-09T11:58:19.800Z,99633.00
2022-08-09T12:01:03.566Z,99631.00
2022-08-09T12:03:55.753Z,99616.00
2022-08-09T12:06:31.980Z,99624.00
2022-08-09T12:09:02.289Z,99621.00
2022-08-09T12:11:32.313Z,99610.00
2022-08-09T12:14:37.282Z,99623.00
2022-08-09T12:16:59.308Z,99618.00
2022-08-09T12:19:32.138Z,99608.00
2022-08-09T12:22:05.879Z,99601.00
2022-08-09T12:24:32.776Z,99601.00
2022-08-09T12:29:11.083Z,99593.00
2022-08-09T12:29:59.965Z,99599.00
2022-08-09T12:32:31.674Z,99608.00
2022-08-09T12:35:05.001Z,99601.00
2022-08-09T12:37:50.619Z,99604.00
2022-08-09T12:40:24.485Z,99600.00
2022-08-09T12:42:52.751Z,99609.00
2022-08-09T12:45:34.105Z,99602.00
2022-08-09T12:48:20.014Z,99594.00
2022-08-09T12:50:59.799Z,99600.00
2022-08-09T12:53:44.635Z,99598.00
2022-08-09T12:56:40.152Z,99589.00
2022-08-09T12:59:57.388Z,99592.00
2022-08-09T13:02:22.850Z,99581.00
2022-08-09T13:05:02.396Z,99584.00
2022-08-09T13:07:51.271Z,99587.00
2022-08-09T13:10:17.333Z,99590.00
2022-08-09T13:13:11.297Z,99582.00
2022-08-09T13:15:36.074Z,99587.00
2022-08-09T13:18:09.449Z,99586.00
2022-08-09T13:21:04.536Z,99577.00
2022-08-09T13:24:17.074Z,99574.00
2022-08-09T13:26:49.750Z,99575.00
2022-08-09T13:29:28.568Z,99565.00
2022-08-09T13:32:16.784Z,99570.00
2022-08-09T13:34:49.319Z,99567.00
2022-08-09T13:37:50.856Z,99563.00
2022-08-09T13:41:51.303Z,99569.00
2022-08-09T13:42:55.967Z,99571.00
2022-08-09T13:45:32.242Z,99568.00
2022-08-09T13:48:10.871Z,99570.00
2022-08-09T13:50:38.171Z,99563.00
2022-08-09T13:53:07.275Z,99575.00
2022-08-09T13:55:35.010Z,99566.00
2022-08-09T13:58:05.173Z,99566.00
2022-08-09T14:00:48.365Z,99557.00
2022-08-09T14:04:03.366Z,99565.00
2022-08-09T14:06:14.645Z,99565.00
2022-08-09T14:08:53.494Z,99563.00
2022-08-09T14:11:21.256Z,99555.00
2022-08-09T14:14:24.136Z,99567.00
2022-08-09T14:16:35.657Z,99562.00
2022-08-09T14:19:04.091Z,99556.00
2022-08-09T14:21:31.945Z,99557.00
2022-08-09T14:24:01.275Z,99555.00
2022-08-09T14:26:37.898Z,99549.00
2022-08-09T14:30:03.806Z,99546.00
2022-08-09T14:31:56.562Z,99549.00
2022-08-09T14:34:31.724Z,99551.00
2022-08-09T14:37:06.627Z,99539.00
2022-08-09T14:39:46.516Z,99537.00
2022-08-09T14:42:30.776Z,99532.00
2022-08-09T14:46:46.080Z,99536.00
2022-08-09T14:47:57.573Z,99533.00
2022-08-09T14:50:33.229Z,99536.00
2022-08-09T14:53:11.269Z,99548.00
2022-08-09T14:55:42.146Z,99539.00
2022-08-09T14:58:11.754Z,99533.00
2022-08-09T15:00:39.851Z,99537.00
2022-08-09T15:03:10.794Z,99535.00
2022-08-09T15:05:38.774Z,99543.00
2022-08-09T15:08:10.308Z,99541.00
2022-08-09T15:10:37.932Z,99528.00
2022-08-09T15:13:08.827Z,99530.00
2022-08-09T15:15:39.502Z,99540.00
2022-08-09T15:18:08.355Z,99527.00
2022-08-09T15:21:58.697Z,99532.00
2022-08-09T15:24:06.135Z,99532.00
2022-08-09T15:26:18.820Z,99539.00
2022-08-09T15:28:55.514Z,99541.00
2022-08-09T15:31:22.489Z,99537.00
2022-08-09T15:34:17.200Z,99530.00
2022-08-09T15:36:55.168Z,99533.00
2022-08-09T15:39:25.455Z,99533.00
2022-08-09T15:42:10.941Z,99528.00
2022-08-09T15:44:38.081Z,99531.00
2022-08-09T15:47:05.702Z,99532.00
2022-08-09T15:49:40.923Z,99534.00
2022-08-09T15:52:28.186Z,99524.00
2022-08-09T15:54:56.138Z,99517.00
2022-08-09T15:57:35.680Z,99518.00
2022-08-09T16:00:25.214Z,99512.00
2022-08-09T16:02:56.240Z,99523.00
2022-08-09T16:05:47.818Z,99517.00
2022-08-09T16:08:30.886Z,99518.00
2022-08-09T16:11:03.348Z,99530.00
2022-08-09T16:14:03.929Z,99515.00
2022-08-09T16:16:19.153Z,99529.00
2022-08-09T16:18:47.732Z,99522.00
2022-08-09T16:21:16.994Z,99518.00
2022-08-09T16:23:54.692Z,99521.00
2022-08-09T16:26:34.484Z,99522.00
2022-08-09T16:29:15.702Z,99526.00
2022-08-09T16:32:19.216Z,99519.00
2022-08-09T16:34:54.577Z,99512.00
2022-08-09T16:37:54.627Z,99518.00
2022-08-09T16:40:29.503Z,99523.00
2022-08-09T16:43:02.612Z,99518.00
2022-08-09T16:45:29.670Z,99517.00
2022-08-09T16:48:40.589Z,99517.00
2022-08-09T16:50:49.667Z,99513.00
2022-08-09T16:53:32.242Z,99521.00
2022-08-09T16:56:05.930Z,99511.00
2022-08-09T16:58:39.922Z,99505.00
2022-08-09T17:01:16.900Z,99511.00
2022-08-09T17:03:46.449Z,99504.00
2022-08-09T17:06:29.270Z,99510.00
2022-08-09T17:09:17.867Z,99498.00
2022-08-09T17:11:51.235Z,99516.00
2022-08-09T17:14:27.448Z,99511.00
2022-08-09T17:17:02.604Z,99507.00
2022-08-09T17:20:12.614Z,99511.00
2022-08-09T17:22:31.040Z,99511.00
2022-08-09T17:25:09.770Z,99506.00
2022-08-09T17:27:48.711Z,99507.00
2022-08-09T17:30:17.111Z,99517.00
2022-08-09T17:32:47.031Z,99514.00
2022-08-09T17:35:14.743Z,99506.00
2022-08-09T17:38:13.178Z,99516.00
2022-08-09T17:40:34.535Z,99524.00
2022-08-09T17:43:32.609Z,99523.00
2022-08-09T17:46:03.653Z,99516.00
2022-08-09T17:48:40.245Z,99525.00
2022-08-09T17:51:18.180Z,99529.00
2022-08-09T17:53:51.895Z,99525.00
2022-08-09T17:56:28.192Z,99530.00
2022-08-09T17:59:11.965Z,99528.00
2022-08-09T18:02:07.535Z,99539.00
2022-08-09T18:04:30.532Z,99532.00
2022-08-09T18:06:57.563Z,99532.00
2022-08-09T18:09:40.135Z,99533.00
2022-08-09T18:12:19.854Z,99530.00
2022-08-09T18:14:54.593Z,99535.00
2022-08-09T18:18:01.958Z,99538.00
2022-08-09T18:20:54.930Z,99544.00
2022-08-09T18:23:05.488Z,99532.00
2022-08-09T18:25:53.238Z,99540.00
2022-08-09T18:30:36.402Z,99547.00
2022-08-09T18:31:14.364Z,99546.00
2022-08-09T18:33:43.263Z,99549.00
2022-08-09T18:36:26.107Z,99547.00
2022-08-09T18:39:02.528Z,99552.00
2022-08-09T18:41:34.282Z,99546.00
2022-08-09T18:44:03.576Z,99555.00
2022-08-09T18:46:49.611Z,99565.00
2022-08-09T18:49:19.291Z,99563.00
2022-08-09T18:51:55.432Z,99572.00
2022-08-09T18:54:29.584Z,99568.00
2022-08-09T18:57:06.113Z,99560.00
2022-08-09T18:59:37.725Z,99570.00
2022-08-09T19:02:17.998Z,99566.00
2022-08-09T19:04:47.862Z,99568.00
2022-08-09T19:07:32.746Z,99572.00
2022-08-09T19:10:16.727Z,99572.00
2022-08-09T19:12:50.142Z,99578.00
2022-08-09T19:15:19.490Z,99585.00
2022-08-09T19:17:56.369Z,99581.00
2022-08-09T19:20:23.707Z,99585.00
2022-08-09T19:22:54.453Z,99578.00
2022-08-09T19:25:42.449Z,99587.00
2022-08-09T19:28:13.408Z,99586.00
2022-08-09T19:30:44.517Z,99592.00
2022-08-09T19:33:19.418Z,99592.00
2022-08-09T19:35:57.907Z,99587.00
2022-08-09T19:38:27.580Z,99587.00
2022-08-09T19:40:57.586Z,99586.00
2022-08-09T19:44:01.196Z,99592.00
2022-08-09T19:46:14.546Z,99602.00
2022-08-09T19:49:02.654Z,99590.00
2022-08-09T19:51:30.727Z,99594.00
2022-08-09T19:54:01.932Z,99593.00
2022-08-09T19:56:29.670Z,99588.00
2022-08-09T19:59:39.523Z,99594.00
2022-08-09T20:02:03.073Z,99592.00
2022-08-09T20:04:40.386Z,99591.00
2022-08-09T20:07:20.895Z,99600.00
2022-08-09T20:09:48.845Z,99594.00
2022-08-09T20:12:27.165Z,99595.00
2022-08-09T20:15:10.374Z,99603.00
2022-08-09T20:17:54.545Z,99595.00
2022-08-09T20:20:22.312Z,99596.00
2022-08-09T20:22:56.077Z,99603.00
2022-08-09T20:25:24.109Z,99599.00
2022-08-09T20:27:52.911Z,99593.00
2022-08-09T20:30:23.926Z,99601.00
2022-08-09T20:32:52.523Z,99606.00
2022-08-09T20:35:21.651Z,99607.00
2022-08-09T20:38:18.756Z,99601.00
2022-08-09T20:40:36.167Z,99608.00
2022-08-09T20:43:17.996Z,99602.00
2022-08-09T20:45:59.385Z,99619.00
2022-08-09T20:48:30.911Z,99617.00
2022-08-09T20:50:59.995Z,99613.00
2022-08-09T20:53:36.413Z,99616.00
2022-08-09T20:56:09.524Z,99623.00
2022-08-09T20:58:54.662Z,99623.00
2022-08-09T21:01:34.175Z,99622.00
2022-08-09T21:05:54.934Z,99620.00
2022-08-09T21:07:12.194Z,99622.00
2022-08-09T21:09:56.532Z,99622.00
2022-08-09T21:12:32.238Z,99606.00
2022-08-09T21:15:02.563Z,99619.00
2022-08-09T21:18:21.808Z,99611.00
2022-08-09T21:20:22.418Z,99621.00
2022-08-09T21:22:54.115Z,99612.00
2022-08-09T21:25:44.033Z,99612.00
2022-08-09T21:28:35.862Z,99617.00
2022-08-09T21:31:17.391Z,99622.00
2022-08-09T21:33:50.349Z,99612.00
2022-08-09T21:36:23.175Z,99609.00
2022-08-09T21:38:57.338Z,99612.00
2022-08-09T21:42:03.746Z,99613.00
2022-08-09T21:44:34.155Z,99620.00
2022-08-09T21:47:05.047Z,99619.00
2022-08-09T21:49:39.805Z,99608.00
2022-08-09T21:52:14.883Z,99610.00
2022-08-09T21:54:50.983Z,99615.00
2022-08-09T21:57:39.048Z,99610.00
2022-08-09T22:00:25.541Z,99608.00
2022-08-09T22:02:59.409Z,99611.00
2022-08-09T22:05:35.999Z,99619.00
2022-08-09T22:08:13.124Z,99616.00
2022-08-09T22:11:00.642Z,99618.00
2022-08-09T22:13:31.591Z,99612.00
2022-08-09T22:16:07.446Z,99616.00
2022-08-09T22:18:37.604Z,99613.00
2022-08-09T22:21:09.394Z,99616.00
2022-08-09T22:23:58.599Z,99611.00
2022-08-09T22:26:35.068Z,99613.00
2022-08-09T22:29:09.041Z,99604.00
2022-08-09T22:31:44.271Z,99619.00
2022-08-09T22:34:17.504Z,99618.00
2022-08-09T22:36:47.895Z,99613.00
2022-08-09T22:39:46.948Z,99615.00
2022-08-09T22:42:06.157Z,99616.00
2022-08-09T22:44:49.001Z,99611.00
2022-08-09T22:48:16.012Z,99620.00
2022-08-09T22:50:13.810Z,99613.00
2022-08-09T22:52:40.721Z,99611.00
2022-08-09T22:55:08.513Z,99609.00
2022-08-09T22:57:59.932Z,99607.00
2022-08-09T23:00:29.599Z,99605.00
2022-08-09T23:02:56.740Z,99609.00
2022-08-09T23:05:25.666Z,99603.00
2022-08-09T23:08:22.460Z,99601.00
2022-08-09T23:10:50.784Z,99598.00
2022-08-09T23:13:17.670Z,99598.00
2022-08-09T23:15:44.519Z,99604.00
2022-08-09T23:18:31.060Z,99602.00
2022-08-09T23:20:57.942Z,99588.00
2022-08-09T23:23:24.839Z,99592.00
2022-08-09T23:25:51.704Z,99582.00
2022-08-09T23:28:18.613Z,99585.00
2022-08-09T23:30:51.876Z,99595.00
2022-08-09T23:33:23.053Z,99577.00
2022-08-09T23:36:04.874Z,99581.00
2022-08-09T23:38:35.957Z,99576.00
2022-08-09T23:41:27.802Z,99580.00
2022-08-09T23:43:57.704Z,99588.00
2022-08-09T23:46:24.562Z,99579.00
2022-08-09T23:48:51.411Z,99581.00
2022-08-09T23:51:18.291Z,99584.00
2022-08-09T23:53:45.165Z,99572.00
2022-08-09T23:56:14.421Z,99583.00
2022-08-09T23:58:41.474Z,99569.00
